ADDS TAF Board (Experimental) INFO

IDs: Format: Expanded Condensed

Updated at: 0421 UTC 02 Sep 2014

KSEA - Seattle-Tacoma Intl, WA, US

Issued at 0301 UTC 02 Sep 2014
Time0353Z02/05Z02/06Z02/07Z02/08Z02/09Z02/10Z02/11Z02/12Z02/13Z02/14Z02/15Z02/16Z02/17Z
TypeOBSPRVLPRVLPRVLPRVLPRVLPRVLPRVLPRVLPRVLPRVLPRVLPRVLPRVL
VIS10>6>6>6>6>6>6>6>6>6>6>6>6>6
CIG3780808025252525101010101010
CoverBKNBKNBKNBKNOVCOVCOVCOVCOVCOVCOVCOVCOVCOVC
FltCat--VFRVFRVFRMVFRMVFRMVFRMVFRMVFRMVFRMVFRMVFRMVFRMVFR
WX----------------------------
WDir29036036036030303030VRBVRBVRBVRBVRBVRB
WSpd45555555444444
WGst----------------------------
R16/34
XWnd-4-0-0-02222VRBVRBVRBVRBVRBVRB
HWnd-1-5-5-5-4-4-4-4VRBVRBVRBVRBVRBVRB
Raw TAF
KSEA 020301Z 0203/0306 36005KT P6SM SCT040 BKN080
  FM020800 03005KT P6SM OVC025
  FM021200 VRB04KT P6SM OVC010
  FM021800 20008KT P6SM OVC025
  FM022000 21010KT P6SM VCSH OVC030
  FM030000 24007KT P6SM -SHRA OVC025


Raw METAR
KSEA 020353Z 29004KT 10SM BKN037 BKN075 19/13 A3000 RMK AO2 SLP165 T01940128 $

TAF Board Legend

Hazard VFR MVFR IFR LIFR
Visibility (sm) >5 3≤X≤5 1≤X<3 <1
Ceiling (100 ft) >30 10≤X≤30 5≤X<10 <5
Wind Speed (kt) <10 10≤X<20 20≤X<30 ≥30
Wind Gust (kt) <15 15≤X<25 25≤X<35 ≥35
Weather No Wx Reported VCTS,-TS,-FZRA TS,FZRA +TS,+FZRA


Page loaded:  04:21 UTC  |   09:21 PM Pacific  |   10:21 PM Mountain  |   11:21 PM Central  |   12:21 AM Eastern

 

ADVISORIES

FORECASTS

FORECASTS

OBSERVATIONS

USER TOOLS

ABOUT US